createdAt,value
2022-08-25T00:00:29.840Z,1002.84
2022-08-25T00:01:29.815Z,1002.83
2022-08-25T00:02:29.850Z,1002.79
2022-08-25T00:03:29.797Z,1002.83
2022-08-25T00:04:30.784Z,1002.85
2022-08-25T00:05:32.316Z,1002.82
2022-08-25T00:06:29.761Z,1002.80
2022-08-25T00:07:29.747Z,1002.82
2022-08-25T00:08:29.723Z,1002.89
2022-08-25T00:09:29.708Z,1002.89
2022-08-25T00:10:29.713Z,1002.86
2022-08-25T00:11:29.695Z,1002.89
2022-08-25T00:12:29.670Z,1002.84
2022-08-25T00:13:29.680Z,1002.87
2022-08-25T00:14:29.650Z,1002.83
2022-08-25T00:15:29.731Z,1002.86
2022-08-25T00:16:29.619Z,1002.87
2022-08-25T00:17:29.601Z,1002.91
2022-08-25T00:18:29.591Z,1002.92
2022-08-25T00:19:29.575Z,1002.85
2022-08-25T00:20:29.581Z,1002.86
2022-08-25T00:21:30.773Z,1002.79
2022-08-25T00:22:29.543Z,1002.83
2022-08-25T00:23:29.524Z,1002.81
2022-08-25T00:24:29.511Z,1002.79
2022-08-25T00:25:29.514Z,1002.81
2022-08-25T00:26:29.485Z,1002.80
2022-08-25T00:27:29.474Z,1002.80
2022-08-25T00:28:29.455Z,1002.79
2022-08-25T00:29:29.466Z,1002.77
2022-08-25T00:30:29.444Z,1002.80
2022-08-25T00:31:38.598Z,1002.76
2022-08-25T00:32:30.407Z,1002.78
2022-08-25T00:33:29.398Z,1002.80
2022-08-25T00:34:29.396Z,1002.80
2022-08-25T00:35:29.379Z,1002.84
2022-08-25T00:36:29.361Z,1002.81
2022-08-25T00:37:29.342Z,1002.82
2022-08-25T00:38:29.326Z,1002.81
2022-08-25T00:39:29.309Z,1002.81
2022-08-25T00:40:29.358Z,1002.82
2022-08-25T00:41:29.289Z,1002.82
2022-08-25T00:42:29.278Z,1002.85
2022-08-25T00:43:29.261Z,1002.84
2022-08-25T00:44:29.267Z,1002.82
2022-08-25T00:45:30.189Z,1002.83
2022-08-25T00:46:29.293Z,1002.87
2022-08-25T00:47:29.202Z,1002.82
2022-08-25T00:48:29.198Z,1002.81
2022-08-25T00:49:29.175Z,1002.85
2022-08-25T00:50:29.172Z,1002.82
2022-08-25T00:51:29.200Z,1002.79
2022-08-25T00:52:29.142Z,1002.81
2022-08-25T00:53:29.121Z,1002.77
2022-08-25T00:54:29.120Z,1002.84
2022-08-25T00:55:29.113Z,1002.86
2022-08-25T00:56:29.085Z,1002.80
2022-08-25T00:57:34.884Z,1002.79
2022-08-25T00:58:30.061Z,1002.80
2022-08-25T00:59:29.045Z,1002.78
2022-08-25T01:00:29.303Z,1002.82
2022-08-25T01:01:29.091Z,1002.82
2022-08-25T01:02:29.062Z,1002.78
2022-08-25T01:03:33.495Z,1002.76
2022-08-25T01:04:29.978Z,1002.79
2022-08-25T01:05:28.977Z,1002.78
2022-08-25T01:06:28.948Z,1002.78
2022-08-25T01:07:28.939Z,1002.79
2022-08-25T01:08:29.281Z,1002.74
2022-08-25T01:09:28.909Z,1002.78
2022-08-25T01:10:28.921Z,1002.72
2022-08-25T01:11:28.895Z,1002.70
2022-08-25T01:12:29.135Z,1002.72
2022-08-25T01:13:28.852Z,1002.70
2022-08-25T01:14:28.851Z,1002.71
2022-08-25T01:15:28.885Z,1002.70
2022-08-25T01:16:28.828Z,1002.69
2022-08-25T01:17:28.801Z,1002.70
2022-08-25T01:18:28.792Z,1002.67
2022-08-25T01:19:28.781Z,1002.63
2022-08-25T01:20:29.399Z,1002.66
2022-08-25T01:21:28.743Z,1002.61
2022-08-25T01:22:28.743Z,1002.60
2022-08-25T01:23:28.723Z,1002.58
2022-08-25T01:24:28.720Z,1002.58
2022-08-25T01:25:28.700Z,1002.59
2022-08-25T01:26:30.541Z,1002.55
2022-08-25T01:27:28.667Z,1002.57
2022-08-25T01:28:28.672Z,1002.56
2022-08-25T01:29:28.645Z,1002.54
2022-08-25T01:30:28.637Z,1002.56
2022-08-25T01:31:28.662Z,1002.54
2022-08-25T01:32:28.604Z,1002.54
2022-08-25T01:33:28.588Z,1002.60
2022-08-25T01:34:28.600Z,1002.56
2022-08-25T01:35:28.558Z,1002.58
2022-08-25T01:36:28.548Z,1002.56
2022-08-25T01:37:28.539Z,1002.60
2022-08-25T01:38:28.531Z,1002.62
2022-08-25T01:39:28.519Z,1002.57
2022-08-25T01:41:37.712Z,1002.60
2022-08-25T01:42:37.963Z,1002.56
2022-08-25T01:43:37.672Z,1002.57
2022-08-25T01:44:37.670Z,1002.55
2022-08-25T01:45:37.703Z,1002.56
2022-08-25T01:46:37.723Z,1002.57
2022-08-25T01:47:37.625Z,1002.53
2022-08-25T01:48:37.613Z,1002.55
2022-08-25T01:49:37.606Z,1002.54
2022-08-25T01:50:37.586Z,1002.52
2022-08-25T01:51:37.576Z,1002.54
2022-08-25T01:52:37.556Z,1002.55
2022-08-25T01:53:37.547Z,1002.55
2022-08-25T01:54:37.547Z,1002.57
2022-08-25T01:55:37.517Z,1002.59
2022-08-25T01:56:37.504Z,1002.55
2022-08-25T01:57:37.497Z,1002.58
2022-08-25T01:58:37.494Z,1002.56
2022-08-25T01:59:37.480Z,1002.58
2022-08-25T02:00:37.455Z,1002.54
2022-08-25T02:01:37.516Z,1002.54
2022-08-25T02:02:37.458Z,1002.54
2022-08-25T02:03:38.439Z,1002.54
2022-08-25T02:04:37.430Z,1002.56
2022-08-25T02:05:37.385Z,1002.51
2022-08-25T02:06:37.374Z,1002.53
2022-08-25T02:07:37.351Z,1002.54
2022-08-25T02:08:37.380Z,1002.53
2022-08-25T02:09:37.333Z,1002.55
2022-08-25T02:10:37.319Z,1002.53
2022-08-25T02:11:37.302Z,1002.49
2022-08-25T02:12:37.303Z,1002.53
2022-08-25T02:13:37.284Z,1002.53
2022-08-25T02:14:37.274Z,1002.55
2022-08-25T02:15:37.252Z,1002.54
2022-08-25T02:16:37.336Z,1002.59
2022-08-25T02:17:37.222Z,1002.55
2022-08-25T02:18:37.226Z,1002.53
2022-08-25T02:19:37.196Z,1002.53
2022-08-25T02:20:37.190Z,1002.50
2022-08-25T02:21:37.179Z,1002.51
2022-08-25T02:22:37.159Z,1002.52
2022-08-25T02:23:37.163Z,1002.50
2022-08-25T02:24:37.138Z,1002.49
2022-08-25T02:25:37.127Z,1002.53
2022-08-25T02:26:37.110Z,1002.44
2022-08-25T02:27:38.058Z,1002.49
2022-08-25T02:28:37.089Z,1002.51
2022-08-25T02:29:37.060Z,1002.44
2022-08-25T02:30:37.123Z,1002.46
2022-08-25T02:31:37.039Z,1002.43
2022-08-25T02:32:37.030Z,1002.42
2022-08-25T02:33:37.019Z,1002.46
2022-08-25T02:34:37.015Z,1002.40
2022-08-25T02:35:36.981Z,1002.42
2022-08-25T02:36:36.978Z,1002.39
2022-08-25T02:37:36.972Z,1002.40
2022-08-25T02:38:36.952Z,1002.36
2022-08-25T02:39:36.935Z,1002.36
2022-08-25T02:40:36.923Z,1002.37
2022-08-25T02:41:36.902Z,1002.40
2022-08-25T02:42:36.913Z,1002.35
2022-08-25T02:43:36.883Z,1002.34
2022-08-25T02:44:37.107Z,1002.32
2022-08-25T02:45:36.907Z,1002.31
2022-08-25T02:46:36.874Z,1002.27
2022-08-25T02:47:36.830Z,1002.30
2022-08-25T02:48:36.826Z,1002.28
2022-08-25T02:49:36.796Z,1002.23
2022-08-25T02:50:36.786Z,1002.24
2022-08-25T02:51:36.775Z,1002.22
2022-08-25T02:52:36.776Z,1002.22
2022-08-25T02:53:36.747Z,1002.23
2022-08-25T02:54:36.739Z,1002.24
2022-08-25T02:55:36.725Z,1002.24
2022-08-25T02:56:36.705Z,1002.27
2022-08-25T02:57:36.708Z,1002.29
2022-08-25T02:58:36.676Z,1002.28
2022-08-25T02:59:36.929Z,1002.27
2022-08-25T03:00:36.649Z,1002.28
2022-08-25T03:01:36.662Z,1002.29
2022-08-25T03:02:36.630Z,1002.29
2022-08-25T03:03:39.418Z,1002.32
2022-08-25T03:04:36.619Z,1002.31
2022-08-25T03:05:36.581Z,1002.32
2022-08-25T03:06:36.581Z,1002.33
2022-08-25T03:07:36.572Z,1002.31
2022-08-25T03:08:36.553Z,1002.33
2022-08-25T03:09:36.763Z,1002.34
2022-08-25T03:10:36.513Z,1002.31
2022-08-25T03:11:36.509Z,1002.33
2022-08-25T03:12:36.509Z,1002.31
2022-08-25T03:13:36.484Z,1002.32
2022-08-25T03:14:36.468Z,1002.30
2022-08-25T03:15:36.444Z,1002.33
2022-08-25T03:16:36.482Z,1002.32
2022-08-25T03:17:36.425Z,1002.31
2022-08-25T03:18:36.420Z,1002.31
2022-08-25T03:19:36.385Z,1002.29
2022-08-25T03:20:36.376Z,1002.32
2022-08-25T03:21:36.367Z,1002.33
2022-08-25T03:22:36.597Z,1002.33
2022-08-25T03:23:36.405Z,1002.30
2022-08-25T03:24:36.334Z,1002.33
2022-08-25T03:25:36.311Z,1002.34
2022-08-25T03:26:36.310Z,1002.37
2022-08-25T03:27:36.288Z,1002.34
2022-08-25T03:28:36.298Z,1002.37
2022-08-25T03:29:36.250Z,1002.37
2022-08-25T03:30:36.242Z,1002.33
2022-08-25T03:31:36.289Z,1002.32
2022-08-25T03:32:36.234Z,1002.33
2022-08-25T03:33:36.240Z,1002.33
2022-08-25T03:34:36.226Z,1002.36
2022-08-25T03:35:36.183Z,1002.36
2022-08-25T03:36:36.161Z,1002.31
2022-08-25T03:37:36.151Z,1002.34
2022-08-25T03:38:36.152Z,1002.34
2022-08-25T03:39:36.122Z,1002.31
2022-08-25T03:40:36.113Z,1002.31
2022-08-25T03:41:37.054Z,1002.31
2022-08-25T03:42:37.033Z,1002.31
2022-08-25T03:43:36.084Z,1002.30
2022-08-25T03:44:36.054Z,1002.26
2022-08-25T03:45:36.075Z,1002.27
2022-08-25T03:46:36.036Z,1002.30
2022-08-25T03:47:36.015Z,1002.23
2022-08-25T03:48:36.984Z,1002.19
2022-08-25T03:49:35.985Z,1002.24
2022-08-25T03:50:35.987Z,1002.22
2022-08-25T03:51:35.985Z,1002.19
2022-08-25T03:52:40.184Z,1002.21
2022-08-25T03:53:36.936Z,1002.21
2022-08-25T03:54:35.925Z,1002.21
2022-08-25T03:55:35.919Z,1002.21
2022-08-25T03:56:35.912Z,1002.20
2022-08-25T03:57:35.879Z,1002.24
2022-08-25T03:58:35.880Z,1002.23
2022-08-25T03:59:35.860Z,1002.22
2022-08-25T04:00:35.868Z,1002.22
2022-08-25T04:01:35.862Z,1002.26
2022-08-25T04:02:35.844Z,1002.29
2022-08-25T04:03:35.809Z,1002.30
2022-08-25T04:04:35.791Z,1002.28
2022-08-25T04:05:35.786Z,1002.26
2022-08-25T04:06:35.760Z,1002.26
2022-08-25T04:07:35.756Z,1002.22
2022-08-25T04:08:35.982Z,1002.19
2022-08-25T04:09:36.965Z,1002.20
2022-08-25T04:10:35.718Z,1002.14
2022-08-25T04:11:35.703Z,1002.18
2022-08-25T04:12:35.683Z,1002.17
2022-08-25T04:13:35.675Z,1002.12
2022-08-25T04:14:35.654Z,1002.13
2022-08-25T04:15:35.646Z,1002.12
2022-08-25T04:16:35.687Z,1002.10
2022-08-25T04:17:35.625Z,1002.13
2022-08-25T04:18:35.596Z,1002.13
2022-08-25T04:19:35.596Z,1002.15
2022-08-25T04:20:35.577Z,1002.11
2022-08-25T04:21:35.557Z,1002.12
2022-08-25T04:22:36.846Z,1002.14
2022-08-25T04:23:35.537Z,1002.15
2022-08-25T04:24:35.519Z,1002.15
2022-08-25T04:25:35.508Z,1002.11
2022-08-25T04:26:35.493Z,1002.12
2022-08-25T04:27:35.488Z,1002.15
2022-08-25T04:28:35.477Z,1002.16
2022-08-25T04:29:35.467Z,1002.19
2022-08-25T04:30:35.441Z,1002.20
2022-08-25T04:31:35.476Z,1002.22
2022-08-25T04:32:35.420Z,1002.22
2022-08-25T04:33:35.403Z,1002.23
2022-08-25T04:34:35.381Z,1002.25
2022-08-25T04:35:35.372Z,1002.25
2022-08-25T04:36:35.359Z,1002.22
2022-08-25T04:37:35.369Z,1002.23
2022-08-25T04:38:35.332Z,1002.23
2022-08-25T04:39:35.322Z,1002.26
2022-08-25T04:40:35.364Z,1002.29
2022-08-25T04:41:35.293Z,1002.24
2022-08-25T04:42:35.284Z,1002.27
2022-08-25T04:43:35.280Z,1002.21
2022-08-25T04:44:35.254Z,1002.24
2022-08-25T04:45:35.320Z,1002.22
2022-08-25T04:46:35.225Z,1002.22
2022-08-25T04:47:35.226Z,1002.26
2022-08-25T04:48:35.196Z,1002.29
2022-08-25T04:49:35.193Z,1002.27
2022-08-25T04:50:35.176Z,1002.24
2022-08-25T04:51:35.174Z,1002.27
2022-08-25T04:52:35.149Z,1002.27
2022-08-25T04:53:35.134Z,1002.26
2022-08-25T04:54:37.401Z,1002.32
2022-08-25T04:55:35.108Z,1002.33
2022-08-25T04:56:35.089Z,1002.36
2022-08-25T04:57:35.090Z,1002.35
2022-08-25T04:58:35.065Z,1002.36
2022-08-25T04:59:35.059Z,1002.33
2022-08-25T05:00:35.066Z,1002.30
2022-08-25T05:01:35.027Z,1002.36
2022-08-25T05:02:35.020Z,1002.30
2022-08-25T05:03:34.999Z,1002.30
2022-08-25T05:04:35.077Z,1002.30
2022-08-25T05:05:34.981Z,1002.31
2022-08-25T05:06:34.983Z,1002.32
2022-08-25T05:07:34.985Z,1002.34
2022-08-25T05:08:34.941Z,1002.31
2022-08-25T05:09:35.871Z,1002.33
2022-08-25T05:10:34.912Z,1002.30
2022-08-25T05:11:34.918Z,1002.30
2022-08-25T05:12:34.886Z,1002.30
2022-08-25T05:13:34.887Z,1002.30
2022-08-25T05:14:34.849Z,1002.26
2022-08-25T05:15:34.841Z,1002.26
2022-08-25T05:16:34.914Z,1002.27
2022-08-25T05:17:34.840Z,1002.25
2022-08-25T05:18:34.833Z,1002.23
2022-08-25T05:19:34.789Z,1002.26
2022-08-25T05:20:34.767Z,1002.25
2022-08-25T05:21:34.768Z,1002.19
2022-08-25T05:22:34.753Z,1002.19
2022-08-25T05:23:34.737Z,1002.19
2022-08-25T05:24:34.727Z,1002.18
2022-08-25T05:25:34.709Z,1002.21
2022-08-25T05:26:34.741Z,1002.21
2022-08-25T05:27:34.690Z,1002.20
2022-08-25T05:28:34.679Z,1002.22
2022-08-25T05:29:34.659Z,1002.19
2022-08-25T05:30:35.580Z,1002.20
2022-08-25T05:31:38.395Z,1002.15
2022-08-25T05:32:35.611Z,1002.17
2022-08-25T05:33:34.603Z,1002.13
2022-08-25T05:34:34.582Z,1002.11
2022-08-25T05:35:34.579Z,1002.07
2022-08-25T05:36:34.563Z,1002.03
2022-08-25T05:37:34.552Z,1001.99
2022-08-25T05:38:34.534Z,1002.01
2022-08-25T05:39:34.523Z,1002.02
2022-08-25T05:40:34.511Z,1002.01
2022-08-25T05:41:34.502Z,1002.06
2022-08-25T05:42:34.484Z,1002.07
2022-08-25T05:43:34.465Z,1002.11
2022-08-25T05:44:34.457Z,1002.12
2022-08-25T05:45:34.502Z,1002.10
2022-08-25T05:46:34.436Z,1002.09
2022-08-25T05:47:34.413Z,1002.10
2022-08-25T05:48:34.405Z,1002.10
2022-08-25T05:49:34.387Z,1002.10
2022-08-25T05:50:34.368Z,1002.12
2022-08-25T05:51:34.377Z,1002.09
2022-08-25T05:52:34.349Z,1002.07
2022-08-25T05:53:34.338Z,1002.10
2022-08-25T05:54:34.334Z,1002.06
2022-08-25T05:55:34.310Z,1002.04
2022-08-25T05:56:34.299Z,1002.05
2022-08-25T05:57:34.287Z,1002.08
2022-08-25T05:58:34.281Z,1002.06
2022-08-25T05:59:34.257Z,1002.09
2022-08-25T06:00:34.251Z,1002.12
2022-08-25T06:01:34.260Z,1002.08
2022-08-25T06:02:34.219Z,1002.06
2022-08-25T06:03:35.193Z,1002.08
2022-08-25T06:04:36.586Z,1002.06
2022-08-25T06:05:34.179Z,1002.06
2022-08-25T06:06:34.174Z,1002.08
2022-08-25T06:07:34.154Z,1002.08
2022-08-25T06:08:34.169Z,1002.10
2022-08-25T06:09:34.125Z,1002.14
2022-08-25T06:10:34.105Z,1002.15
2022-08-25T06:11:34.119Z,1002.13
2022-08-25T06:12:34.085Z,1002.10
2022-08-25T06:13:34.076Z,1002.13
2022-08-25T06:14:34.057Z,1002.15
2022-08-25T06:15:34.046Z,1002.14
2022-08-25T06:16:34.054Z,1002.14
2022-08-25T06:17:34.137Z,1002.18
2022-08-25T06:18:34.028Z,1002.14
2022-08-25T06:19:34.003Z,1002.15
2022-08-25T06:20:33.998Z,1002.14
2022-08-25T06:21:33.969Z,1002.13
2022-08-25T06:22:34.218Z,1002.14
2022-08-25T06:23:33.952Z,1002.18
2022-08-25T06:24:33.928Z,1002.18
2022-08-25T06:25:33.913Z,1002.15
2022-08-25T06:26:33.910Z,1002.16
2022-08-25T06:27:33.880Z,1002.13
2022-08-25T06:28:33.871Z,1002.15
2022-08-25T06:29:33.871Z,1002.14
2022-08-25T06:30:33.845Z,1002.20
2022-08-25T06:31:33.894Z,1002.15
2022-08-25T06:32:33.813Z,1002.17
2022-08-25T06:33:33.805Z,1002.16
2022-08-25T06:34:33.793Z,1002.19
2022-08-25T06:35:33.783Z,1002.16
2022-08-25T06:36:34.731Z,1002.17
2022-08-25T06:37:34.555Z,1002.23
2022-08-25T06:38:33.735Z,1002.20
2022-08-25T06:39:33.735Z,1002.22
2022-08-25T06:40:34.691Z,1002.24
2022-08-25T06:41:36.803Z,1002.21
2022-08-25T06:42:33.686Z,1002.19
2022-08-25T06:43:33.677Z,1002.21
2022-08-25T06:44:33.656Z,1002.18
2022-08-25T06:45:33.656Z,1002.21
2022-08-25T06:46:36.318Z,1002.19
2022-08-25T06:47:34.579Z,1002.16
2022-08-25T06:48:33.614Z,1002.14
2022-08-25T06:49:36.206Z,1002.11
2022-08-25T06:50:33.590Z,1002.12
2022-08-25T06:51:33.567Z,1002.05
2022-08-25T06:52:33.560Z,1002.04
2022-08-25T06:53:33.541Z,1002.02
2022-08-25T06:54:33.521Z,1002.03
2022-08-25T06:55:33.522Z,1001.95
2022-08-25T06:56:33.493Z,1001.92
2022-08-25T06:57:33.489Z,1001.91
2022-08-25T06:58:33.473Z,1001.91
2022-08-25T06:59:33.490Z,1001.83
2022-08-25T07:00:33.487Z,1001.87
2022-08-25T07:01:33.623Z,1001.89
2022-08-25T07:02:35.403Z,1001.87
2022-08-25T07:03:33.429Z,1001.85
2022-08-25T07:04:33.396Z,1001.87
2022-08-25T07:05:43.489Z,1001.92
2022-08-25T07:06:34.360Z,1001.91
2022-08-25T07:07:43.592Z,1001.89
2022-08-25T07:08:34.346Z,1001.95
2022-08-25T07:09:37.329Z,1001.98
2022-08-25T07:10:34.316Z,1001.95
2022-08-25T07:11:33.310Z,1001.99
2022-08-25T07:12:33.287Z,1001.99
2022-08-25T07:13:33.278Z,1002.01
2022-08-25T07:14:33.259Z,1001.99
2022-08-25T07:15:33.300Z,1002.02
2022-08-25T07:16:34.221Z,1001.97
2022-08-25T07:17:33.219Z,1001.99
2022-08-25T07:18:33.210Z,1001.96
2022-08-25T07:19:33.197Z,1002.02
2022-08-25T07:20:33.181Z,1002.04
2022-08-25T07:21:35.460Z,1002.05
2022-08-25T07:22:33.151Z,1002.05
2022-08-25T07:23:33.139Z,1002.03
2022-08-25T07:24:33.142Z,1002.07
2022-08-25T07:25:33.143Z,1002.04
2022-08-25T07:26:40.081Z,1002.03
2022-08-25T07:27:34.099Z,1002.02
2022-08-25T07:28:33.074Z,1002.00
2022-08-25T07:29:33.324Z,1002.02
2022-08-25T07:30:33.065Z,1002.03
2022-08-25T07:31:33.071Z,1002.01
2022-08-25T07:32:33.016Z,1002.04
2022-08-25T07:33:33.016Z,1002.06
2022-08-25T07:34:32.987Z,1002.04
2022-08-25T07:35:37.354Z,1002.06
2022-08-25T07:36:32.968Z,1002.02
2022-08-25T07:37:48.092Z,1002.05
2022-08-25T07:38:33.948Z,1002.02
2022-08-25T07:39:32.932Z,1001.99
2022-08-25T07:40:32.954Z,1002.00
2022-08-25T07:41:32.914Z,1001.99
2022-08-25T07:42:32.899Z,1001.96
2022-08-25T07:43:32.876Z,1001.99
2022-08-25T07:44:32.866Z,1001.99
2022-08-25T07:45:32.882Z,1001.99
2022-08-25T07:46:32.868Z,1002.03
2022-08-25T07:47:32.832Z,1002.00
2022-08-25T07:48:32.842Z,1001.98
2022-08-25T07:50:33.784Z,1001.99
2022-08-25T07:51:32.788Z,1001.97
2022-08-25T07:52:32.785Z,1001.96
2022-08-25T07:53:32.762Z,1001.95
2022-08-25T07:54:34.224Z,1001.94
2022-08-25T07:55:32.715Z,1001.92
2022-08-25T07:56:32.695Z,1001.95
2022-08-25T07:57:32.693Z,1001.93
2022-08-25T07:58:32.686Z,1001.95
2022-08-25T07:59:39.231Z,1001.93
2022-08-25T08:00:33.648Z,1001.92
2022-08-25T08:01:32.664Z,1001.87
2022-08-25T08:02:32.665Z,1001.91
2022-08-25T08:03:45.199Z,1001.88
2022-08-25T08:04:33.610Z,1001.88
2022-08-25T08:05:32.589Z,1001.89
2022-08-25T08:06:32.570Z,1001.87
2022-08-25T08:07:43.427Z,1001.88
2022-08-25T08:08:33.550Z,1001.88
2022-08-25T08:09:32.541Z,1001.90
2022-08-25T08:10:53.872Z,1001.90
2022-08-25T08:11:33.537Z,1001.86
2022-08-25T08:12:32.493Z,1001.85
2022-08-25T08:13:32.484Z,1001.82
2022-08-25T08:14:32.481Z,1001.83
2022-08-25T08:15:32.453Z,1001.79
2022-08-25T08:16:33.691Z,1001.78
2022-08-25T08:17:32.426Z,1001.76
2022-08-25T08:18:33.371Z,1001.72
2022-08-25T08:19:32.423Z,1001.76
2022-08-25T08:20:35.926Z,1001.71
2022-08-25T08:21:33.376Z,1001.73
2022-08-25T08:22:32.364Z,1001.74
2022-08-25T08:23:33.306Z,1001.71
2022-08-25T08:24:44.695Z,1001.72
2022-08-25T08:25:33.328Z,1001.71
2022-08-25T08:26:55.304Z,1001.68
2022-08-25T08:27:33.308Z,1001.68
2022-08-25T08:28:32.279Z,1001.72
2022-08-25T08:29:32.270Z,1001.68
2022-08-25T08:30:32.257Z,1001.66
2022-08-25T08:31:32.261Z,1001.69
2022-08-25T08:32:46.430Z,1001.66
2022-08-25T08:33:34.169Z,1001.69
2022-08-25T08:34:33.217Z,1001.68
2022-08-25T08:35:32.192Z,1001.63
2022-08-25T08:36:32.193Z,1001.65
2022-08-25T08:37:32.158Z,1001.62
2022-08-25T08:38:32.171Z,1001.64
2022-08-25T08:39:32.688Z,1001.61
2022-08-25T08:40:32.208Z,1001.62
2022-08-25T08:41:40.201Z,1001.60
2022-08-25T08:42:33.095Z,1001.54
2022-08-25T08:43:33.444Z,1001.53
2022-08-25T08:44:32.086Z,1001.52
2022-08-25T08:45:35.361Z,1001.49
2022-08-25T08:46:33.088Z,1001.47
2022-08-25T08:47:32.026Z,1001.47
2022-08-25T08:48:32.280Z,1001.44
2022-08-25T08:49:32.247Z,1001.45
2022-08-25T08:50:33.609Z,1001.45
2022-08-25T08:51:32.781Z,1001.43
2022-08-25T08:52:31.967Z,1001.40
2022-08-25T08:53:34.234Z,1001.40
2022-08-25T08:54:34.029Z,1001.39
2022-08-25T08:55:31.921Z,1001.38
2022-08-25T08:56:31.910Z,1001.41
2022-08-25T08:57:31.891Z,1001.43
2022-08-25T08:58:31.888Z,1001.40
2022-08-25T08:59:31.932Z,1001.35
2022-08-25T09:00:32.818Z,1001.35
2022-08-25T09:01:31.898Z,1001.31
2022-08-25T09:02:39.331Z,1001.31
2022-08-25T09:03:32.864Z,1001.28
2022-08-25T09:04:31.818Z,1001.29
2022-08-25T09:05:34.384Z,1001.24
2022-08-25T09:06:32.772Z,1001.26
2022-08-25T09:07:31.771Z,1001.27
2022-08-25T09:08:31.756Z,1001.26
2022-08-25T09:09:35.782Z,1001.29
2022-08-25T09:10:31.731Z,1001.30
2022-08-25T09:11:31.710Z,1001.34
2022-08-25T09:12:31.706Z,1001.23
2022-08-25T09:13:31.700Z,1001.26
2022-08-25T09:14:31.668Z,1001.27
2022-08-25T09:15:31.693Z,1001.28
2022-08-25T09:16:34.490Z,1001.29
2022-08-25T09:17:31.630Z,1001.23
2022-08-25T09:18:32.591Z,1001.18
2022-08-25T09:19:32.090Z,1001.19
2022-08-25T09:20:31.641Z,1001.20
2022-08-25T09:21:31.604Z,1001.18
2022-08-25T09:22:33.462Z,1001.19
2022-08-25T09:23:31.582Z,1001.21
2022-08-25T09:24:31.573Z,1001.21
2022-08-25T09:25:53.391Z,1001.16
2022-08-25T09:26:32.514Z,1001.13
2022-08-25T09:27:31.496Z,1001.17
2022-08-25T09:28:31.503Z,1001.13
2022-08-25T09:29:31.479Z,1001.18
2022-08-25T09:30:31.456Z,1001.15
2022-08-25T09:31:31.489Z,1001.17
2022-08-25T09:32:32.395Z,1001.17
2022-08-25T09:33:31.427Z,1001.16
2022-08-25T09:34:32.358Z,1001.14
2022-08-25T09:35:32.339Z,1001.17
2022-08-25T09:36:35.489Z,1001.16
2022-08-25T09:37:32.367Z,1001.16
2022-08-25T09:38:31.370Z,1001.18
2022-08-25T09:39:31.349Z,1001.17
2022-08-25T09:40:32.343Z,1001.12
2022-08-25T09:41:31.321Z,1001.12
2022-08-25T09:42:31.299Z,1001.11
2022-08-25T09:43:31.293Z,1001.08
2022-08-25T09:44:31.270Z,1001.11
2022-08-25T09:45:31.271Z,1001.08
2022-08-25T09:46:31.268Z,1001.07
2022-08-25T09:47:31.234Z,1001.03
2022-08-25T09:48:31.237Z,1001.02
2022-08-25T09:49:31.207Z,1001.00
2022-08-25T09:50:31.196Z,1001.00
2022-08-25T09:51:37.898Z,1000.96
2022-08-25T09:52:32.409Z,1001.00
2022-08-25T09:53:33.813Z,1001.06
2022-08-25T09:54:44.406Z,1001.03
2022-08-25T09:55:32.422Z,1000.97
2022-08-25T09:56:31.116Z,1000.98
2022-08-25T09:57:31.097Z,1000.97
2022-08-25T09:58:31.088Z,1000.96
2022-08-25T09:59:34.963Z,1000.89
2022-08-25T10:00:31.067Z,1000.98
2022-08-25T10:01:34.537Z,1000.94
2022-08-25T10:02:31.039Z,1000.88
2022-08-25T10:03:31.029Z,1000.88
2022-08-25T10:04:32.011Z,1000.87
2022-08-25T10:05:31.011Z,1000.85
2022-08-25T10:06:30.998Z,1000.77
2022-08-25T10:07:30.972Z,1000.80
2022-08-25T10:08:30.971Z,1000.78
2022-08-25T10:09:30.963Z,1000.78
2022-08-25T10:11:45.159Z,1000.75
2022-08-25T10:12:43.911Z,1000.72
2022-08-25T10:13:43.932Z,1000.70
2022-08-25T10:14:44.480Z,1000.67
2022-08-25T10:15:44.094Z,1000.69
2022-08-25T10:16:46.886Z,1000.73
2022-08-25T10:17:44.031Z,1000.65
2022-08-25T10:18:43.124Z,1000.62
2022-08-25T10:19:43.023Z,1000.65
2022-08-25T10:20:44.735Z,1000.64
2022-08-25T10:21:43.027Z,1000.56
2022-08-25T10:22:43.007Z,1000.55
2022-08-25T10:23:42.992Z,1000.59
2022-08-25T10:24:44.222Z,1000.57
2022-08-25T10:25:42.966Z,1000.56
2022-08-25T10:26:43.947Z,1000.61
2022-08-25T10:27:42.937Z,1000.52
2022-08-25T10:28:42.916Z,1000.52
2022-08-25T10:29:42.898Z,1000.49
2022-08-25T10:30:42.961Z,1000.49
2022-08-25T10:31:42.879Z,1000.52
2022-08-25T10:32:42.873Z,1000.48
2022-08-25T10:33:42.847Z,1000.48
2022-08-25T10:34:44.386Z,1000.48
2022-08-25T10:35:42.829Z,1000.46
2022-08-25T10:36:42.811Z,1000.45
2022-08-25T10:37:42.812Z,1000.42
2022-08-25T10:38:43.525Z,1000.40
2022-08-25T10:39:42.780Z,1000.38
2022-08-25T10:40:43.639Z,1000.37
2022-08-25T10:41:42.734Z,1000.38
2022-08-25T10:42:42.870Z,1000.38
2022-08-25T10:43:42.977Z,1000.37
2022-08-25T10:44:42.692Z,1000.32
2022-08-25T10:45:42.686Z,1000.33
2022-08-25T10:46:43.214Z,1000.32
2022-08-25T10:47:42.666Z,1000.30
2022-08-25T10:48:42.650Z,1000.36
2022-08-25T10:49:42.636Z,1000.34
2022-08-25T10:50:45.596Z,1000.38
2022-08-25T10:51:43.615Z,1000.33
2022-08-25T10:52:43.559Z,1000.25
2022-08-25T10:53:42.579Z,1000.32
2022-08-25T10:54:42.562Z,1000.23
2022-08-25T10:55:42.551Z,1000.23
2022-08-25T10:56:42.569Z,1000.21
2022-08-25T10:57:42.542Z,1000.20
2022-08-25T10:58:42.512Z,1000.20
2022-08-25T10:59:42.502Z,1000.21
2022-08-25T11:00:47.708Z,1000.20
2022-08-25T11:01:44.489Z,1000.16
2022-08-25T11:02:42.523Z,1000.15
2022-08-25T11:03:42.444Z,1000.17
2022-08-25T11:04:42.450Z,1000.13
2022-08-25T11:05:42.435Z,1000.11
2022-08-25T11:06:42.420Z,1000.13
2022-08-25T11:07:43.453Z,1000.08
2022-08-25T11:08:42.386Z,1000.04
2022-08-25T11:09:43.336Z,1000.03
2022-08-25T11:10:42.346Z,1000.04
2022-08-25T11:11:42.369Z,1000.00
2022-08-25T11:12:42.334Z,1000.04
2022-08-25T11:13:43.278Z,1000.09
2022-08-25T11:14:42.328Z,1000.02
2022-08-25T11:15:54.822Z,1000.02
2022-08-25T11:16:43.329Z,1000.01
2022-08-25T11:17:42.271Z,1000.01
2022-08-25T11:18:42.251Z,999.94
2022-08-25T11:19:42.247Z,999.97
2022-08-25T11:20:42.232Z,999.94
2022-08-25T11:21:42.213Z,999.98
2022-08-25T11:22:42.202Z,999.96
2022-08-25T11:23:42.194Z,999.94
2022-08-25T11:24:42.198Z,999.96
2022-08-25T11:25:42.165Z,999.99
2022-08-25T11:26:42.157Z,999.98
2022-08-25T11:27:42.140Z,999.98
2022-08-25T11:28:42.125Z,1000.03
2022-08-25T11:29:42.106Z,999.92
2022-08-25T11:30:42.124Z,999.90
2022-08-25T11:31:42.081Z,999.92
2022-08-25T11:32:42.089Z,999.90
2022-08-25T11:33:42.058Z,999.85
2022-08-25T11:34:43.860Z,999.87
2022-08-25T11:35:42.039Z,999.87
2022-08-25T11:36:42.022Z,999.89
2022-08-25T11:37:42.020Z,999.88
2022-08-25T11:38:41.997Z,999.81
2022-08-25T11:39:41.981Z,999.83
2022-08-25T11:40:41.994Z,999.77
2022-08-25T11:41:41.982Z,999.78
2022-08-25T11:42:42.190Z,999.79
2022-08-25T11:43:41.923Z,999.76
2022-08-25T11:44:53.270Z,999.84
2022-08-25T11:45:42.953Z,999.77
2022-08-25T11:46:41.907Z,999.75
2022-08-25T11:47:41.885Z,999.70
2022-08-25T11:48:41.874Z,999.72
2022-08-25T11:49:41.852Z,999.69
2022-08-25T11:50:41.846Z,999.73
2022-08-25T11:51:41.816Z,999.72
2022-08-25T11:52:41.826Z,999.73
2022-08-25T11:53:42.336Z,999.69
2022-08-25T11:54:41.806Z,999.62
2022-08-25T11:55:41.772Z,999.77
2022-08-25T11:56:41.768Z,999.72
2022-08-25T11:57:41.769Z,999.71
2022-08-25T11:58:41.739Z,999.71
2022-08-25T11:59:41.746Z,999.67
2022-08-25T12:00:41.718Z,999.67
2022-08-25T12:01:42.659Z,999.71
2022-08-25T12:02:42.578Z,999.73
2022-08-25T12:03:41.661Z,999.72
2022-08-25T12:04:44.309Z,999.71
2022-08-25T12:05:41.759Z,999.71
2022-08-25T12:06:41.641Z,999.67
2022-08-25T12:07:41.664Z,999.62
2022-08-25T12:08:41.604Z,999.65
2022-08-25T12:09:41.602Z,999.64
2022-08-25T12:10:41.590Z,999.63